• Join FlightAware (Why Join?)
  • Login
  • US Flag 
02:53PM EDT


 

Airport Tracker/Info


-or-


 

Live Flight TrackerFlight Track Log ✈ N78866 ✈ 17-May-2012 ✈ KEWR - KMCO

Flight Track Log - Related Links

Times and Time Zones

All times are in EDT time to prevent confusion due to time zone crossing. See the N78866 flight status page for this flight to view local times or setup timezone preferences in your user account.

Time Position Orientation Groundspeed Altitude Reporting Facility
EDT Latitude Longitude Course Direction KTS MPH feet Rate Location/Type
04:35PM 40.6667 -74.2409 58° Northeast  Level FlightAware Approximate
04:36PM 40.7167 -74.1333 276° West 188 216 1,800  Level New York TRACON
04:40PM 40.7353 -74.3889 321° Northwest 266 306 11,000 1,860 Climbing New York Center
04:41PM 40.7978 -74.4553 288° West 230 265 11,800 1,620 Climbing New York Center
04:42PM 40.8164 -74.5331 239° Southwest 244 281 14,300 1,560 Climbing New York Center
04:43PM 40.7669 -74.6397 236° Southwest 280 322 15,000 960 Climbing New York Center
04:44PM 40.7158 -74.7408 234° Southwest 354 407 16,300 1,860 Climbing New York Center
04:45PM 40.6511 -74.8603 234° Southwest 373 429 18,800 2,160 Climbing New York Center
04:46PM 40.5889 -74.9742 232° Southwest 378 435 20,700 1,860 Climbing New York Center
04:47PM 40.5222 -75.0875 229° Southwest 389 448 22,600 1,740 Climbing New York Center
04:48PM 40.4539 -75.1922 231° Southwest 406 467 24,300 1,680 Climbing New York Center
04:49PM 40.3828 -75.3075 230° Southwest 411 473 26,000 1,740 Climbing New York Center
04:50PM 40.3028 -75.4331 231° Southwest 416 479 27,800 1,440 Climbing New York Center
04:51PM 40.2269 -75.5556 237° Southwest 423 487 28,900 1,620 Climbing New York Center
04:52PM 40.1725 -75.6633 233° Southwest 418 481 31,200 2,100 Climbing New York Center
04:53PM 40.1053 -75.7781 228° Southwest 411 473 33,200 2,220 Climbing New York Center
04:54PM 40.0294 -75.8892 228° Southwest 393 452 35,700 1,380 Climbing New York Center
04:55PM 39.9650 -75.9819 228° Southwest 364 419 36,000 120 Climbing New York Center
04:56PM 39.9006 -76.0744 228° Southwest 356 410 36,000  Level New York Center
04:57PM 39.8333 -76.1722 232° Southwest 356 410 36,000  Level New York Center
04:58PM 39.7747 -76.2703 228° Southwest 356 410 36,000  Level New York Center
04:59PM 39.7122 -76.3600 227° Southwest 362 417 36,000  Level New York Center
05:00PM 39.6428 -76.4569 228° Southwest 369 425 36,000  Level New York Center
05:01PM 39.5575 -76.5794 228° Southwest 361 415 36,000  Level Washington Center
05:02PM 39.4878 -76.6806 227° Southwest 366 421 36,000  Level Washington Center
05:03PM 39.4181 -76.7789 227° Southwest 371 427 36,000  Level Washington Center
05:04PM 39.3483 -76.8772 227° Southwest 376 433 36,000  Level Washington Center
05:05PM 39.2764 -76.9778 228° Southwest 376 433 36,000  Level Washington Center
05:06PM 39.2044 -77.0808 227° Southwest 382 440 36,000  Level Washington Center
05:07PM 39.1342 -77.1783 228° Southwest 382 440 36,000  Level Washington Center
05:08PM 39.0619 -77.2811 227° Southwest 382 440 36,000  Level Washington Center
05:09PM 38.9897 -77.3808 226° Southwest 382 440 36,000  Level Washington Center
05:10PM 38.9153 -77.4806 229° Southwest 387 445 36,000  Level Washington Center
05:11PM 38.8342 -77.6011 227° Southwest 399 459 36,000  Level Washington Center
05:12PM 38.7594 -77.7028 228° Southwest 399 459 36,000  Level Washington Center
05:14PM 38.6139 -77.9058 234° Southwest 414 476 36,000  Level Washington Center
05:15PM 38.5469 -78.0233 234° Southwest 420 483 36,000  Level Washington Center
05:16PM 38.4797 -78.1406 233° Southwest 420 483 36,000  Level Washington Center
05:17PM 38.4083 -78.2600 232° Southwest 426 490 36,000  Level Washington Center
05:18PM 38.3347 -78.3789 233° Southwest 426 490 36,000  Level Washington Center
05:19PM 38.2631 -78.5006 236° Southwest 431 496 36,000  Level Washington Center
05:20PM 38.1997 -78.6197 233° Southwest 426 490 36,000  Level Washington Center
05:21PM 38.1256 -78.7433 233° Southwest 426 490 36,000  Level Washington Center
05:22PM 38.0469 -78.8747 232° Southwest 426 490 36,000  Level Washington Center
05:23PM 37.9728 -78.9953 232° Southwest 432 497 36,000  Level Washington Center
05:24PM 37.8983 -79.1156 228° Southwest 432 497 36,000  Level Washington Center
05:25PM 37.8178 -79.2300 228° Southwest 432 497 36,000  Level Washington Center
05:26PM 37.7481 -79.3264 227° Southwest 437 503 36,000  Level Washington Center
05:27PM 37.6608 -79.4428 228° Southwest 448 516 36,000  Level Washington Center
05:28PM 37.5714 -79.5667 227° Southwest 448 516 36,000  Level Washington Center
05:29PM 37.4969 -79.6675 228° Southwest 448 516 36,000  Level Washington Center
05:30PM 37.4139 -79.7833 227° Southwest 439 505 36,000  Level Washington Center
05:31PM 37.3306 -79.8939 227° Southwest 439 505 36,000  Level Washington Center
05:33PM 37.1372 -80.1519 227° Southwest 438 504 36,000  Level Atlanta Center
05:34PM 37.0553 -80.2625 221° Southwest 430 495 36,000  Level Atlanta Center
05:35PM 36.9644 -80.3603 214° Southwest 437 503 36,000  Level Atlanta Center
05:36PM 36.8750 -80.4344 213° Southwest 437 503 36,000  Level Atlanta Center
05:37PM 36.7750 -80.5142 215° Southwest 432 497 36,000  Level Atlanta Center
05:38PM 36.6794 -80.5961 214° Southwest 413 475 36,000  Level Atlanta Center
05:39PM 36.5836 -80.6778 213° Southwest 414 476 36,000  Level Atlanta Center
05:40PM 36.4672 -80.7706 214° Southwest 419 482 36,000  Level Atlanta Center
05:41PM 36.3672 -80.8544 214° Southwest 426 490 36,000  Level Atlanta Center
05:42PM 36.2714 -80.9356 202° Southwest 426 490 36,000  Level Atlanta Center
05:43PM 36.1622 -80.9911 182° South 422 486 36,000  Level Atlanta Center
05:44PM 36.0436 -80.9956 181° South 422 486 36,000  Level Atlanta Center
05:45PM 35.9122 -80.9981 181° South 422 486 36,000  Level Atlanta Center
05:46PM 35.7933 -81.0000 180° South 428 493 36,000  Level Atlanta Center
05:47PM 35.6744 -80.9992 181° South 428 493 36,000  Level Atlanta Center
05:48PM 35.5514 -81.0011 183° South 438 504 36,000  Level Atlanta Center
05:49PM 35.4450 -81.0078 182° South 433 498 36,000  Level Atlanta Center
05:50PM 35.3283 -81.0119 181° South 428 493 36,000  Level Atlanta Center
05:51PM 35.2117 -81.0136 182° South 428 493 36,000  Level Atlanta Center
05:54PM 34.9011 -81.0244 178° South 428 493 36,000  Level Jacksonville Center
05:55PM 34.7842 -81.0194 182° South 428 493 36,000  Level Jacksonville Center
05:56PM 34.6656 -81.0247 181° South 434 499 36,000  Level Jacksonville Center
05:57PM 34.5444 -81.0272 180° South 434 499 36,000  Level Jacksonville Center
05:58PM 34.4278 -81.0272 181° South 434 499 36,000  Level Jacksonville Center
05:59PM 34.3089 -81.0297 180° South 434 499 36,000  Level Jacksonville Center
06:00PM 34.2044 -81.0294 181° South 420 483 36,000  Level Jacksonville Center
06:01PM 34.0897 -81.0319 180° South 420 483 36,000  Level Jacksonville Center
06:02PM 33.9667 -81.0322 182° South 420 483 36,000  Level Jacksonville Center
06:03PM 33.8500 -81.0369 181° South 426 490 36,000  Level Jacksonville Center
06:04PM 33.7311 -81.0397 181° South 420 483 36,000  Level Jacksonville Center
06:05PM 33.6142 -81.0419 181° South 420 483 36,000  Level Jacksonville Center
06:06PM 33.4953 -81.0444 181° South 420 483 36,000  Level Jacksonville Center
06:07PM 33.3764 -81.0469 181° South 420 483 36,000  Level Jacksonville Center
06:08PM 33.2575 -81.0494 181° South 425 489 36,000  Level Jacksonville Center
06:09PM 33.1383 -81.0519 181° South 425 489 36,000  Level Jacksonville Center
06:10PM 33.0175 -81.0544 181° South 430 495 36,000  Level Jacksonville Center
06:11PM 32.8944 -81.0569 180° South 435 501 36,000  Level Jacksonville Center
06:12PM 32.7753 -81.0569 181° South 440 506 36,000  Level Jacksonville Center
06:13PM 32.6542 -81.0594 181° South 440 506 36,000  Level Jacksonville Center
06:14PM 32.5228 -81.0619 177° South 440 506 36,000  Level Jacksonville Center
06:15PM 32.4017 -81.0544 173° South 438 504 36,000  Level Jacksonville Center
06:16PM 32.2928 -81.0394 171° South 441 507 36,000  Level Jacksonville Center
06:17PM 32.1589 -81.0153 173° South 450 518 36,000  Level Jacksonville Center
06:18PM 32.0356 -80.9981 175° South 450 518 36,000  Level Jacksonville Center
06:19PM 31.9267 -80.9858 174° South 445 512 36,000  Level Jacksonville Center
06:20PM 31.7886 -80.9689 172° South 451 519 36,000  Level Jacksonville Center
06:21PM 31.6653 -80.9497 174° South 451 519 36,000  Level Jacksonville Center
06:22PM 31.5564 -80.9372 172° South 446 513 36,000 -300 Level Jacksonville Center
06:23PM 31.4183 -80.9158 174° South 446 513 35,500 -900 Descending Jacksonville Center
06:24PM 31.3033 -80.9011 173° South 452 520 34,200 -1,380 Descending Jacksonville Center
06:25PM 31.1736 -80.8822 174° South 466 536 32,800 -1,380 Descending Jacksonville Center
06:26PM 31.0458 -80.8656 174° South 466 536 31,500 -1,500 Descending Jacksonville Center
06:27PM 30.9119 -80.8489 173° South 472 543 29,900 -1,380 Descending Jacksonville Center
06:28PM 30.7758 -80.8300 174° South 486 559 28,800 -1,020 Descending Jacksonville Center
06:29PM 30.6442 -80.8136 174° South 486 559 27,900 -1,080 Descending Jacksonville Center
06:30PM 30.5144 -80.7972 174° South 480 552 26,700 -1,380 Descending Jacksonville Center
06:31PM 30.3869 -80.7808 174° South 474 545 25,200 -1,380 Descending Jacksonville Center
06:32PM 30.2592 -80.7644 174° South 469 540 24,000 -600 Descending Jacksonville Center
06:33PM 30.1317 -80.7481 174° South 463 533 24,000  Level Jacksonville Center
06:34PM 30.0144 -80.7336 174° South 453 521 24,000  Level Jacksonville Center
06:35PM 29.9036 -80.7194 175° South 424 488 24,000 -60 Level Jacksonville Center
06:36PM 29.7886 -80.7078 173° South 412 474 23,900 -780 Descending Jacksonville Center
06:37PM 29.6861 -80.6933 173° South 400 460 22,500 -1,560 Descending Jacksonville Center
06:38PM 29.5792 -80.6789 174° South 395 455 20,800 -1,800 Descending Jacksonville Center
06:39PM 29.4747 -80.6669 172° South 389 448 19,000 -1,800 Descending Jacksonville Center
06:40PM 29.3722 -80.6503 192° South 365 420 17,300 -1,680 Descending Jacksonville Center
06:41PM 29.2786 -80.6739 192° South 348 400 15,700 -1,680 Descending Jacksonville Center
06:42PM 29.1808 -80.6975 195° South 347 399 14,000 -1,620 Descending Jacksonville Center
06:43PM 29.0875 -80.7256 191° South 353 406 12,500 -960 Descending Jacksonville Center
06:44PM 29.0042 -80.7439 193° South 336 387 12,100 -480 Descending Jacksonville Center
06:45PM 28.9253 -80.7647 203° Southwest 309 356 11,600 -900 Descending Jacksonville Center
06:46PM 28.8550 -80.7994 243° Southwest 292 336 10,400 -780 Descending Jacksonville Center
06:47PM 28.8247 -80.8686 243° Southwest 249 287 10,100 -180 Descending Jacksonville Center
06:48PM 28.7944 -80.9356 242° Southwest 244 281 10,100 -600 Level Jacksonville Center
06:49PM 28.7661 -80.9956 242° Southwest 237 273 8,900 -1,200 Descending Jacksonville Center
06:50PM 28.7358 -81.0600 245° Southwest 231 266 7,700 -1,320 Descending Jacksonville Center
06:51PM 28.7094 -81.1244 237° Southwest 225 259 6,300 -1,440 Descending Jacksonville Center
06:52PM 28.6667 -81.2000 221° Southwest 213 245 4,200 -1,200 Descending Orlando TRACON
06:53PM 28.6167 -81.2500 221° Southwest 198 228 3,400 -780 Descending Orlando TRACON
06:54PM 28.5833 -81.2833 221° Southwest 189 217 2,600 -780 Descending Orlando TRACON